createdAt,value
2019-05-29T00:02:01.719Z,101258.08
2019-05-29T00:04:31.289Z,101269.33
2019-05-29T00:07:00.634Z,101271.48
2019-05-29T00:09:30.474Z,101270.36
2019-05-29T00:12:00.110Z,101274.74
2019-05-29T00:14:29.400Z,101274.13
2019-05-29T00:16:58.824Z,101275.50
2019-05-29T00:19:28.389Z,101273.48
2019-05-29T00:21:57.734Z,101278.36
2019-05-29T00:24:27.106Z,101277.22
2019-05-29T00:26:56.623Z,101279.58
2019-05-29T00:29:25.943Z,101286.94
2019-05-29T00:31:55.381Z,101280.83
2019-05-29T00:34:24.880Z,101276.98
2019-05-29T00:36:54.211Z,101282.98
2019-05-29T00:39:23.730Z,101286.19
2019-05-29T00:41:53.246Z,101279.53
2019-05-29T00:44:34.032Z,101282.80
2019-05-29T00:46:53.619Z,101290.65
2019-05-29T00:49:23.837Z,101288.78
2019-05-29T00:51:53.153Z,101296.05
2019-05-29T00:54:22.614Z,101298.31
2019-05-29T00:56:52.144Z,101295.45
2019-05-29T00:59:21.415Z,101294.44
2019-05-29T01:01:51.559Z,101292.54
2019-05-29T01:04:21.116Z,101291.17
2019-05-29T01:06:50.403Z,101296.53
2019-05-29T01:09:20.764Z,101297.64
2019-05-29T01:11:50.638Z,101293.73
2019-05-29T01:14:21.238Z,101308.99
2019-05-29T01:16:50.850Z,101309.95
2019-05-29T01:19:26.648Z,101304.42
2019-05-29T01:21:57.808Z,101313.20
2019-05-29T01:24:27.401Z,101312.16
2019-05-29T01:26:56.923Z,101310.97
2019-05-29T01:29:26.773Z,101311.37
2019-05-29T01:31:56.084Z,101312.45
2019-05-29T01:34:25.611Z,101315.54
2019-05-29T01:36:55.107Z,101317.84
2019-05-29T01:39:24.403Z,101321.57
2019-05-29T01:41:53.941Z,101319.52
2019-05-29T01:44:24.143Z,101323.29
2019-05-29T01:46:53.527Z,101329.19
2019-05-29T01:49:23.834Z,101327.82
2019-05-29T01:51:53.248Z,101337.02
2019-05-29T01:54:23.709Z,101340.77
2019-05-29T01:56:53.488Z,101348.95
2019-05-29T01:59:23.936Z,101350.08
2019-05-29T02:01:53.401Z,101364.27
2019-05-29T02:04:24.070Z,101367.70
2019-05-29T02:06:54.115Z,101370.98
2019-05-29T02:09:24.251Z,101368.61
2019-05-29T02:11:53.954Z,101377.62
2019-05-29T02:14:24.709Z,101372.45
2019-05-29T02:16:54.146Z,101372.24
2019-05-29T02:19:24.009Z,101368.02
2019-05-29T02:21:55.945Z,101375.32
2019-05-29T02:24:25.451Z,101380.20
2019-05-29T02:26:54.760Z,101387.25
2019-05-29T02:29:24.885Z,101387.74
2019-05-29T02:31:54.365Z,101387.79
2019-05-29T02:34:25.534Z,101383.86
2019-05-29T02:36:55.045Z,101376.20
2019-05-29T02:39:25.644Z,101377.82
2019-05-29T02:41:55.581Z,101387.09
2019-05-29T02:44:25.906Z,101387.59
2019-05-29T02:46:56.704Z,101395.13
2019-05-29T02:49:28.115Z,101397.58
2019-05-29T02:51:57.517Z,101397.50
2019-05-29T02:54:27.708Z,101403.99
2019-05-29T02:56:58.483Z,101408.92
2019-05-29T02:59:29.651Z,101421.66
2019-05-29T03:01:59.034Z,101418.64
2019-05-29T03:04:30.075Z,101430.39
2019-05-29T03:07:00.344Z,101431.05
2019-05-29T03:09:30.778Z,101425.96
2019-05-29T03:12:00.630Z,101431.91
2019-05-29T03:14:31.880Z,101428.47
2019-05-29T03:17:02.125Z,101439.30
2019-05-29T03:19:32.468Z,101446.73
2019-05-29T03:22:02.788Z,101444.27
2019-05-29T03:24:32.970Z,101455.10
2019-05-29T03:27:03.037Z,101455.05
2019-05-29T03:29:34.106Z,101465.63
2019-05-29T03:32:03.400Z,101459.95
2019-05-29T03:34:39.608Z,101460.78
2019-05-29T03:37:04.119Z,101468.92
2019-05-29T03:39:34.580Z,101471.94
2019-05-29T03:42:04.580Z,101474.83
2019-05-29T03:44:35.408Z,101471.97
2019-05-29T03:47:05.241Z,101473.87
2019-05-29T03:49:35.185Z,101471.06
2019-05-29T03:52:04.732Z,101476.50
2019-05-29T03:54:35.520Z,101472.45
2019-05-29T03:57:05.125Z,101478.55
2019-05-29T03:59:35.431Z,101480.69
2019-05-29T04:02:05.890Z,101479.46
2019-05-29T04:04:36.266Z,101485.13
2019-05-29T04:07:06.587Z,101490.39
2019-05-29T04:09:37.368Z,101488.37
2019-05-29T04:12:08.557Z,101487.81
2019-05-29T04:14:38.389Z,101493.70
2019-05-29T04:17:08.017Z,101491.75
2019-05-29T04:19:38.667Z,101488.65
2019-05-29T04:22:11.738Z,101494.44
2019-05-29T04:24:41.394Z,101493.78
2019-05-29T04:27:13.875Z,101499.09
2019-05-29T04:29:43.974Z,101500.08
2019-05-29T04:32:13.279Z,101516.03
2019-05-29T04:34:43.000Z,101517.09
2019-05-29T04:37:12.357Z,101515.72
2019-05-29T04:39:41.634Z,101521.87
2019-05-29T04:42:11.427Z,101528.66
2019-05-29T04:44:41.326Z,101526.03
2019-05-29T04:47:12.146Z,101530.14
2019-05-29T04:49:42.126Z,101534.52
2019-05-29T04:52:11.632Z,101536.80
2019-05-29T04:54:41.052Z,101544.32
2019-05-29T04:57:10.593Z,101554.66
2019-05-29T04:59:40.055Z,101556.05
2019-05-29T05:02:09.613Z,101552.18
2019-05-29T05:04:39.503Z,101556.34
2019-05-29T05:07:08.857Z,101568.50
2019-05-29T05:09:38.178Z,101569.55
2019-05-29T05:12:07.597Z,101566.38
2019-05-29T05:14:37.794Z,101566.30
2019-05-29T05:17:07.331Z,101561.95
2019-05-29T05:19:37.994Z,101574.80
2019-05-29T05:22:07.525Z,101569.80
2019-05-29T05:24:40.878Z,101568.52
2019-05-29T05:27:08.056Z,101577.84
2019-05-29T05:29:38.481Z,101573.18
2019-05-29T05:32:07.820Z,101589.45
2019-05-29T05:34:38.701Z,101590.20
2019-05-29T05:37:08.150Z,101594.17
2019-05-29T05:39:37.510Z,101585.39
2019-05-29T05:42:07.067Z,101593.84
2019-05-29T05:44:37.056Z,101600.01
2019-05-29T05:47:06.380Z,101598.70
2019-05-29T05:49:37.318Z,101603.61
2019-05-29T05:52:06.743Z,101601.77
2019-05-29T05:54:36.019Z,101600.84
2019-05-29T05:57:05.711Z,101606.73
2019-05-29T05:59:35.771Z,101610.94
2019-05-29T06:02:05.061Z,101610.80
2019-05-29T06:04:35.793Z,101619.14
2019-05-29T06:07:05.298Z,101621.38
2019-05-29T06:09:34.554Z,101624.43
2019-05-29T06:12:03.838Z,101625.85
2019-05-29T06:14:34.345Z,101616.33
2019-05-29T06:17:03.724Z,101631.98
2019-05-29T06:19:34.845Z,101627.40
2019-05-29T06:22:05.140Z,101626.23
2019-05-29T06:24:35.407Z,101627.53
2019-05-29T06:27:04.705Z,101635.28
2019-05-29T06:29:35.209Z,101636.46
2019-05-29T06:32:05.165Z,101638.81
2019-05-29T06:34:35.678Z,101646.58
2019-05-29T06:37:05.283Z,101646.20
2019-05-29T06:39:35.633Z,101647.88
2019-05-29T06:42:04.956Z,101654.94
2019-05-29T06:44:34.827Z,101664.30
2019-05-29T06:47:05.633Z,101660.81
2019-05-29T06:49:35.926Z,101656.69
2019-05-29T06:52:08.995Z,101667.37
2019-05-29T06:54:37.760Z,101669.41
2019-05-29T06:57:07.172Z,101672.49
2019-05-29T06:59:36.623Z,101670.80
2019-05-29T07:02:05.959Z,101673.38
2019-05-29T07:04:36.232Z,101675.72
2019-05-29T07:07:05.908Z,101683.56
2019-05-29T07:09:36.874Z,101678.99
2019-05-29T07:12:06.231Z,101683.23
2019-05-29T07:14:36.403Z,101681.59
2019-05-29T07:17:07.659Z,101695.47
2019-05-29T07:19:49.131Z,101688.80
2019-05-29T07:22:08.279Z,101695.25
2019-05-29T07:24:38.739Z,101695.55
2019-05-29T07:27:13.404Z,101699.42
2019-05-29T07:29:41.036Z,101703.19
2019-05-29T07:32:10.510Z,101703.53
2019-05-29T07:34:51.106Z,101710.49
2019-05-29T07:37:11.359Z,101709.56
2019-05-29T07:39:41.461Z,101715.84
2019-05-29T07:42:10.937Z,101723.83
2019-05-29T07:44:40.282Z,101724.87
2019-05-29T07:47:10.047Z,101727.63
2019-05-29T07:49:44.370Z,101727.06
2019-05-29T07:52:11.225Z,101730.38
2019-05-29T07:54:41.637Z,101738.54
2019-05-29T07:57:11.191Z,101739.40
2019-05-29T07:59:40.547Z,101743.91
2019-05-29T08:02:09.938Z,101745.55
2019-05-29T08:04:40.900Z,101758.59
2019-05-29T08:07:10.406Z,101754.41
2019-05-29T08:09:39.693Z,101749.42
2019-05-29T08:12:09.179Z,101752.86
2019-05-29T08:14:39.648Z,101761.97
2019-05-29T08:17:09.340Z,101759.80
2019-05-29T08:19:53.499Z,101760.30
2019-05-29T08:22:09.745Z,101766.11
2019-05-29T08:24:40.538Z,101773.85
2019-05-29T08:27:09.976Z,101776.37
2019-05-29T08:29:40.583Z,101771.27
2019-05-29T08:32:10.027Z,101778.20
2019-05-29T08:34:39.332Z,101789.84
2019-05-29T08:37:09.979Z,101780.00
2019-05-29T08:39:39.477Z,101787.88
2019-05-29T08:42:22.602Z,101790.05
2019-05-29T08:44:41.288Z,101795.38
2019-05-29T08:47:11.200Z,101787.42
2019-05-29T08:49:41.669Z,101807.20
2019-05-29T08:52:12.684Z,101807.81
2019-05-29T08:54:42.134Z,101812.42
2019-05-29T08:57:11.421Z,101816.48
2019-05-29T08:59:42.077Z,101816.53
2019-05-29T09:02:11.502Z,101810.00
2019-05-29T09:04:40.853Z,101807.53
2019-05-29T09:07:10.523Z,101816.17
2019-05-29T09:09:39.800Z,101815.02
2019-05-29T09:12:09.111Z,101818.75
2019-05-29T09:14:38.649Z,101827.87
2019-05-29T09:17:07.989Z,101829.57
2019-05-29T09:19:37.361Z,101823.22
2019-05-29T09:22:06.913Z,101833.66
2019-05-29T09:24:36.198Z,101820.14
2019-05-29T09:27:05.504Z,101823.78
2019-05-29T09:29:35.258Z,101844.52
2019-05-29T09:32:04.579Z,101829.57
2019-05-29T09:34:33.870Z,101834.19
2019-05-29T09:37:03.860Z,101847.50
2019-05-29T09:39:33.136Z,101844.72
2019-05-29T09:42:02.429Z,101842.94
2019-05-29T09:44:38.668Z,101838.70
2019-05-29T09:47:03.011Z,101845.79
2019-05-29T09:49:32.342Z,101846.79
2019-05-29T09:52:02.056Z,101859.81
2019-05-29T09:54:31.476Z,101862.34
2019-05-29T09:57:01.141Z,101865.00
2019-05-29T09:59:30.836Z,101859.20
2019-05-29T10:02:05.129Z,101855.64
2019-05-29T10:04:31.362Z,101867.34
2019-05-29T10:07:02.273Z,101866.56
2019-05-29T10:09:31.811Z,101870.92
2019-05-29T10:12:04.121Z,101861.49
2019-05-29T10:14:32.529Z,101865.83
2019-05-29T10:17:07.456Z,101878.69
2019-05-29T10:19:32.978Z,101881.37
2019-05-29T10:22:04.057Z,101892.77
2019-05-29T10:24:34.917Z,101890.92
2019-05-29T10:27:06.782Z,101889.09
2019-05-29T10:29:37.440Z,101890.67
2019-05-29T10:32:07.546Z,101894.19
2019-05-29T10:34:37.295Z,101906.23
2019-05-29T10:37:07.140Z,101901.99
2019-05-29T10:39:36.516Z,101905.44
2019-05-29T10:42:06.211Z,101911.33
2019-05-29T10:44:36.318Z,101915.61
2019-05-29T10:47:06.222Z,101919.56
2019-05-29T10:49:35.926Z,101922.95
2019-05-29T10:52:15.861Z,101925.84
2019-05-29T10:54:39.305Z,101928.05
2019-05-29T10:57:09.650Z,101924.11
2019-05-29T10:59:39.689Z,101921.48
2019-05-29T11:02:09.867Z,101938.59
2019-05-29T11:04:40.207Z,101940.43
2019-05-29T11:07:09.845Z,101948.66
2019-05-29T11:09:44.344Z,101944.36
2019-05-29T11:12:12.097Z,101956.78
2019-05-29T11:14:42.205Z,101955.84
2019-05-29T11:17:11.676Z,101954.67
2019-05-29T11:19:41.623Z,101955.98
2019-05-29T11:22:25.633Z,101952.08
2019-05-29T11:24:42.306Z,101954.81
2019-05-29T11:27:12.033Z,101970.63
2019-05-29T11:29:41.420Z,101977.70
2019-05-29T11:32:11.825Z,101963.88
2019-05-29T11:34:41.398Z,101976.75
2019-05-29T11:37:10.857Z,101982.47
2019-05-29T11:39:41.039Z,101984.06
2019-05-29T11:42:26.441Z,101991.98
2019-05-29T11:44:42.825Z,102000.83
2019-05-29T11:47:12.973Z,102000.83
2019-05-29T11:49:43.414Z,102001.81
2019-05-29T11:52:24.443Z,101999.02
2019-05-29T11:54:45.103Z,101999.02
2019-05-29T11:57:15.099Z,102005.70
2019-05-29T11:59:44.862Z,101996.35
2019-05-29T12:02:18.027Z,102008.83
2019-05-29T12:04:47.824Z,102006.37
2019-05-29T12:07:17.601Z,102010.88
2019-05-29T12:09:47.782Z,102018.05
2019-05-29T12:12:17.879Z,102016.44
2019-05-29T12:15:00.765Z,102020.75
2019-05-29T12:17:19.622Z,102017.65
2019-05-29T12:19:50.171Z,102025.22
2019-05-29T12:22:19.785Z,102028.64
2019-05-29T12:24:50.111Z,102031.48
2019-05-29T12:27:19.699Z,102038.30
2019-05-29T12:29:49.499Z,102040.20
2019-05-29T12:32:19.649Z,102039.38
2019-05-29T12:34:53.689Z,102037.41
2019-05-29T12:37:21.231Z,102043.09
2019-05-29T12:39:51.514Z,102042.70
2019-05-29T12:42:21.571Z,102049.67
2019-05-29T12:44:53.542Z,102045.52
2019-05-29T12:47:23.643Z,102039.06
2019-05-29T12:49:53.784Z,102048.52
2019-05-29T12:52:23.755Z,102040.52
2019-05-29T12:54:53.920Z,102049.81
2019-05-29T12:57:24.338Z,102045.52
2019-05-29T12:59:55.658Z,102049.91
2019-05-29T13:02:26.453Z,102045.56
2019-05-29T13:05:09.423Z,102047.20
2019-05-29T13:07:29.322Z,102052.38
2019-05-29T13:10:00.452Z,102052.12
2019-05-29T13:12:30.630Z,102056.86
2019-05-29T13:15:00.819Z,102051.27
2019-05-29T13:17:30.732Z,102057.31
2019-05-29T13:20:13.741Z,102055.19
2019-05-29T13:22:32.429Z,102054.77
2019-05-29T13:25:03.349Z,102062.00
2019-05-29T13:27:33.522Z,102067.72
2019-05-29T13:30:04.940Z,102061.99
2019-05-29T13:32:34.839Z,102073.57
2019-05-29T13:35:06.282Z,102077.21
2019-05-29T13:37:36.187Z,102077.45
2019-05-29T13:40:08.509Z,102074.33
2019-05-29T13:42:39.594Z,102073.45
2019-05-29T13:45:17.994Z,102059.85
2019-05-29T13:47:41.710Z,102084.16
2019-05-29T13:50:13.353Z,102070.27
2019-05-29T13:52:42.684Z,102075.91
2019-05-29T13:55:12.767Z,102074.42
2019-05-29T13:57:42.918Z,102078.91
2019-05-29T14:00:33.733Z,102079.19
2019-05-29T14:02:45.547Z,102077.87
2019-05-29T14:05:16.652Z,102088.92
2019-05-29T14:07:46.137Z,102087.38
2019-05-29T14:10:15.692Z,102084.56
2019-05-29T14:12:45.031Z,102091.04
2019-05-29T14:15:14.816Z,102084.73
2019-05-29T14:17:44.188Z,102084.41
2019-05-29T14:20:14.369Z,102082.45
2019-05-29T14:22:43.784Z,102088.19
2019-05-29T14:25:13.299Z,102097.84
2019-05-29T14:27:42.636Z,102094.37
2019-05-29T14:30:14.927Z,102094.69
2019-05-29T14:32:44.302Z,102094.11
2019-05-29T14:35:13.779Z,102107.16
2019-05-29T14:37:43.172Z,102099.43
2019-05-29T14:40:12.659Z,102110.41
2019-05-29T14:42:42.488Z,102111.56
2019-05-29T14:45:12.912Z,102104.86
2019-05-29T14:47:43.334Z,102115.16
2019-05-29T14:50:13.533Z,102113.89
2019-05-29T14:52:43.459Z,102112.95
2019-05-29T14:55:18.241Z,102121.02
2019-05-29T14:57:47.909Z,102123.19
2019-05-29T15:00:25.026Z,102126.65
2019-05-29T15:02:50.498Z,102127.42
2019-05-29T15:05:20.024Z,102119.51
2019-05-29T15:07:49.378Z,102121.72
2019-05-29T15:10:26.800Z,102126.20
2019-05-29T15:12:51.434Z,102119.56
2019-05-29T15:15:21.914Z,102128.66
2019-05-29T15:17:51.963Z,102131.20
2019-05-29T15:20:23.522Z,102131.48
2019-05-29T15:22:53.452Z,102144.27
2019-05-29T15:25:24.727Z,102143.70
2019-05-29T15:27:54.620Z,102142.05
2019-05-29T15:30:24.471Z,102145.66
2019-05-29T15:32:55.001Z,102149.05
2019-05-29T15:35:25.389Z,102149.55
2019-05-29T15:37:55.360Z,102154.87
2019-05-29T15:40:26.198Z,102154.30
2019-05-29T15:42:56.135Z,102159.34
2019-05-29T15:45:25.709Z,102158.30
2019-05-29T15:47:55.237Z,102159.17
2019-05-29T15:50:25.372Z,102153.36
2019-05-29T15:52:55.319Z,102152.31
2019-05-29T15:55:33.517Z,102158.69
2019-05-29T15:57:57.426Z,102159.29
2019-05-29T16:00:27.573Z,102155.35
2019-05-29T16:02:57.907Z,102169.27
2019-05-29T16:05:28.194Z,102168.75
2019-05-29T16:07:57.545Z,102165.77
2019-05-29T16:10:27.169Z,102166.01
2019-05-29T16:12:57.215Z,102170.17
2019-05-29T16:15:26.561Z,102167.98
2019-05-29T16:17:56.755Z,102170.50
2019-05-29T16:20:27.162Z,102169.70
2019-05-29T16:22:56.886Z,102173.62
2019-05-29T16:25:39.496Z,102172.52
2019-05-29T16:27:58.342Z,102170.02
2019-05-29T16:30:28.252Z,102172.77
2019-05-29T16:32:58.532Z,102175.83
2019-05-29T16:35:28.871Z,102183.08
2019-05-29T16:37:58.890Z,102179.20
2019-05-29T16:40:29.185Z,102180.60
2019-05-29T16:42:59.224Z,102188.91
2019-05-29T16:45:29.246Z,102183.09
2019-05-29T16:54:06.601Z,102185.92
2019-05-29T16:56:36.189Z,102193.39
2019-05-29T16:59:06.153Z,102191.46
2019-05-29T17:01:36.092Z,102191.20
2019-05-29T17:04:06.074Z,102195.07
2019-05-29T17:06:35.955Z,102197.86
2019-05-29T17:09:08.693Z,102195.64
2019-05-29T17:11:38.364Z,102196.74
2019-05-29T17:14:07.765Z,102201.44
2019-05-29T17:16:37.638Z,102208.38
2019-05-29T17:19:07.048Z,102203.12
2019-05-29T17:21:36.417Z,102208.59
2019-05-29T17:24:05.970Z,102214.67
2019-05-29T17:26:35.294Z,102215.23
2019-05-29T17:29:05.258Z,102213.53
2019-05-29T17:31:35.440Z,102214.90
2019-05-29T17:34:05.461Z,102219.05
2019-05-29T17:36:35.837Z,102215.72
2019-05-29T17:39:08.174Z,102216.53
2019-05-29T17:41:39.102Z,102218.77
2019-05-29T17:44:09.289Z,102218.98
2019-05-29T17:46:38.583Z,102219.26
2019-05-29T17:49:08.426Z,102217.89
2019-05-29T17:51:38.544Z,102222.86
2019-05-29T17:54:08.521Z,102225.31
2019-05-29T17:56:38.604Z,102223.08
2019-05-29T17:59:08.838Z,102231.34
2019-05-29T18:01:38.888Z,102229.89
2019-05-29T18:04:08.720Z,102234.55
2019-05-29T18:06:38.776Z,102230.70
2019-05-29T18:09:09.376Z,102230.15
2019-05-29T18:11:39.824Z,102237.56
2019-05-29T18:14:09.630Z,102233.65
2019-05-29T18:16:39.719Z,102234.42
2019-05-29T18:19:09.844Z,102230.22
2019-05-29T18:21:39.717Z,102230.47
2019-05-29T18:24:09.803Z,102232.59
2019-05-29T18:26:46.999Z,102236.27
2019-05-29T18:29:11.529Z,102243.69
2019-05-29T18:31:41.511Z,102239.95
2019-05-29T18:34:11.373Z,102243.42
2019-05-29T18:36:41.091Z,102257.94
2019-05-29T18:39:11.170Z,102259.47
2019-05-29T18:41:41.280Z,102259.82
2019-05-29T18:44:11.392Z,102263.99
2019-05-29T18:46:42.008Z,102271.23
2019-05-29T18:49:14.575Z,102265.44
2019-05-29T18:51:42.723Z,102274.97
2019-05-29T18:54:12.256Z,102278.95
2019-05-29T18:56:41.641Z,102280.41
2019-05-29T18:59:11.289Z,102285.88
2019-05-29T19:01:40.766Z,102289.45
2019-05-29T19:04:10.107Z,102287.52
2019-05-29T19:06:39.494Z,102293.22
2019-05-29T19:09:09.536Z,102295.67
2019-05-29T19:11:39.246Z,102298.66
2019-05-29T19:14:09.314Z,102300.06
2019-05-29T19:16:39.700Z,102297.34
2019-05-29T19:19:09.005Z,102308.14
2019-05-29T19:21:38.315Z,102307.61
2019-05-29T19:24:07.966Z,102316.77
2019-05-29T19:26:37.271Z,102313.02
2019-05-29T19:29:06.514Z,102311.35
2019-05-29T19:31:35.907Z,102316.73
2019-05-29T19:34:05.266Z,102324.63
2019-05-29T19:36:34.601Z,102322.30
2019-05-29T19:39:06.710Z,102328.98
2019-05-29T19:41:36.011Z,102329.41
2019-05-29T19:44:05.568Z,102327.77
2019-05-29T19:46:52.588Z,102333.59
2019-05-29T19:49:06.152Z,102335.89
2019-05-29T19:51:35.536Z,102336.31
2019-05-29T19:54:05.035Z,102352.58
2019-05-29T19:56:34.361Z,102352.91
2019-05-29T19:59:03.664Z,102354.70
2019-05-29T20:01:37.549Z,102358.31
2019-05-29T20:04:04.371Z,102363.58
2019-05-29T20:06:33.652Z,102363.20
2019-05-29T20:09:03.298Z,102363.90
2019-05-29T20:11:33.650Z,102371.12
2019-05-29T20:14:03.034Z,102366.88
2019-05-29T20:16:32.588Z,102365.52
2019-05-29T20:19:01.910Z,102369.11
2019-05-29T20:21:32.643Z,102369.47
2019-05-29T20:24:02.424Z,102376.09
2019-05-29T20:26:32.947Z,102375.65
2019-05-29T20:29:02.247Z,102379.28
2019-05-29T20:31:32.392Z,102379.97
2019-05-29T20:34:01.747Z,102385.84
2019-05-29T20:36:33.574Z,102391.47
2019-05-29T20:39:02.817Z,102388.15
2019-05-29T20:41:34.119Z,102389.36
2019-05-29T20:44:03.167Z,102396.73
2019-05-29T20:46:32.734Z,102392.91
2019-05-29T20:49:02.033Z,102399.06
2019-05-29T20:51:32.747Z,102402.77
2019-05-29T20:54:02.766Z,102395.23
2019-05-29T20:56:32.131Z,102403.78
2019-05-29T20:59:02.478Z,102397.08
2019-05-29T21:01:32.207Z,102395.53
2019-05-29T21:04:01.477Z,102398.95
2019-05-29T21:06:30.808Z,102398.11
2019-05-29T21:09:00.404Z,102406.77
2019-05-29T21:11:29.701Z,102404.42
2019-05-29T21:13:59.066Z,102413.00
2019-05-29T21:16:28.556Z,102407.79
2019-05-29T21:18:57.845Z,102413.52
2019-05-29T21:21:27.795Z,102408.20
2019-05-29T21:23:57.341Z,102412.66
2019-05-29T21:26:26.643Z,102414.45
2019-05-29T21:28:55.930Z,102415.11
2019-05-29T21:31:25.851Z,102415.01
2019-05-29T21:33:55.174Z,102415.36
2019-05-29T21:36:24.459Z,102413.48
2019-05-29T21:38:53.901Z,102417.40
2019-05-29T21:41:23.261Z,102418.25
2019-05-29T21:43:52.537Z,102422.47
2019-05-29T21:46:22.057Z,102422.92
2019-05-29T21:48:51.418Z,102429.95
2019-05-29T21:51:20.799Z,102439.00
2019-05-29T21:53:50.317Z,102443.33
2019-05-29T21:56:19.608Z,102442.56
2019-05-29T21:59:03.052Z,102442.06
2019-05-29T22:01:20.476Z,102439.33
2019-05-29T22:03:49.748Z,102440.70
2019-05-29T22:06:19.042Z,102437.32
2019-05-29T22:08:48.538Z,102439.22
2019-05-29T22:11:17.928Z,102442.60
2019-05-29T22:13:47.184Z,102446.30
2019-05-29T22:16:16.717Z,102451.12
2019-05-29T22:18:46.032Z,102450.28
2019-05-29T22:21:15.336Z,102455.86
2019-05-29T22:23:44.952Z,102456.84
2019-05-29T22:26:14.209Z,102455.16
2019-05-29T22:28:43.535Z,102452.12
2019-05-29T22:31:13.231Z,102453.37
2019-05-29T22:33:42.570Z,102458.84
2019-05-29T22:36:11.824Z,102460.94
2019-05-29T22:38:41.837Z,102455.38
2019-05-29T22:41:11.148Z,102459.27
2019-05-29T22:43:40.408Z,102454.02
2019-05-29T22:46:09.825Z,102449.70
2019-05-29T22:48:39.266Z,102448.13
2019-05-29T22:51:08.603Z,102441.49
2019-05-29T22:53:37.940Z,102446.34
2019-05-29T22:56:07.245Z,102449.19
2019-05-29T22:58:36.546Z,102449.38
2019-05-29T23:01:06.060Z,102448.77
2019-05-29T23:03:35.415Z,102450.02
2019-05-29T23:06:04.833Z,102453.92
2019-05-29T23:08:34.554Z,102448.95
2019-05-29T23:11:03.883Z,102449.41
2019-05-29T23:13:33.205Z,102443.59
2019-05-29T23:16:02.933Z,102439.50
2019-05-29T23:18:32.214Z,102438.58
2019-05-29T23:21:02.653Z,102446.97
2019-05-29T23:23:32.456Z,102437.73
2019-05-29T23:26:02.859Z,102438.15
2019-05-29T23:28:32.209Z,102438.38
2019-05-29T23:31:02.975Z,102442.05
2019-05-29T23:33:32.395Z,102435.41
2019-05-29T23:36:01.718Z,102437.20
2019-05-29T23:38:31.294Z,102440.13
2019-05-29T23:41:01.509Z,102435.30
2019-05-29T23:43:30.830Z,102431.61
2019-05-29T23:46:02.381Z,102431.31
2019-05-29T23:48:31.690Z,102428.27
2019-05-29T23:51:01.758Z,102432.89
2019-05-29T23:53:31.123Z,102427.00
2019-05-29T23:56:00.428Z,102427.00
2019-05-29T23:58:30.219Z,102432.47
